createdAt,value
2019-03-26T00:01:10.056Z,20.00
2019-03-26T00:04:05.309Z,19.90
2019-03-26T00:06:28.654Z,20.00
2019-03-26T00:09:01.262Z,20.00
2019-03-26T00:11:34.902Z,20.00
2019-03-26T00:14:07.617Z,20.00
2019-03-26T00:16:40.372Z,20.00
2019-03-26T00:19:13.056Z,20.10
2019-03-26T00:21:45.953Z,20.10
2019-03-26T00:24:18.603Z,20.00
2019-03-26T00:26:51.925Z,20.00
2019-03-26T00:29:24.563Z,19.80
2019-03-26T00:31:57.400Z,19.80
2019-03-26T00:34:30.034Z,19.70
2019-03-26T00:37:02.942Z,19.70
2019-03-26T00:39:35.546Z,19.60
2019-03-26T00:42:08.227Z,19.60
2019-03-26T00:44:40.852Z,19.50
2019-03-26T00:47:13.414Z,19.50
2019-03-26T00:49:46.030Z,19.40
2019-03-26T00:52:18.818Z,19.40
2019-03-26T00:54:51.418Z,19.30
2019-03-26T00:57:24.280Z,19.60
2019-03-26T00:59:56.876Z,19.50
2019-03-26T01:02:29.537Z,19.50
2019-03-26T01:05:02.146Z,19.70
2019-03-26T01:07:35.016Z,19.60
2019-03-26T01:10:09.653Z,19.60
2019-03-26T01:12:42.929Z,19.70
2019-03-26T01:15:15.567Z,19.70
2019-03-26T01:17:48.239Z,19.70
2019-03-26T01:20:20.798Z,19.70
2019-03-26T01:22:53.749Z,19.70
2019-03-26T01:25:26.445Z,19.80
2019-03-26T01:27:59.515Z,19.80
2019-03-26T01:30:32.088Z,19.90
2019-03-26T01:33:04.769Z,19.80
2019-03-26T01:35:37.353Z,19.90
2019-03-26T01:38:10.108Z,19.80
2019-03-26T01:40:42.786Z,19.90
2019-03-26T01:43:15.533Z,20.00
2019-03-26T01:45:48.125Z,20.10
2019-03-26T01:48:20.969Z,20.20
2019-03-26T01:50:53.505Z,20.20
2019-03-26T01:53:26.322Z,20.20
2019-03-26T01:55:58.889Z,20.40
2019-03-26T01:58:31.788Z,20.30
2019-03-26T02:01:04.356Z,20.40
2019-03-26T02:03:36.972Z,20.30
2019-03-26T02:06:09.518Z,20.40
2019-03-26T02:08:42.186Z,20.30
2019-03-26T02:11:14.773Z,20.50
2019-03-26T02:13:47.518Z,20.60
2019-03-26T02:16:20.089Z,20.70
2019-03-26T02:18:52.653Z,20.70
2019-03-26T02:21:25.363Z,20.60
2019-03-26T02:23:58.077Z,20.40
2019-03-26T02:26:30.762Z,20.60
2019-03-26T02:29:03.544Z,20.30
2019-03-26T02:31:36.166Z,20.20
2019-03-26T02:34:08.908Z,20.20
2019-03-26T02:36:41.509Z,20.10
2019-03-26T02:39:14.185Z,20.00
2019-03-26T02:41:46.960Z,20.00
2019-03-26T02:44:19.932Z,19.90
2019-03-26T02:46:52.543Z,19.90
2019-03-26T02:49:25.261Z,20.00
2019-03-26T02:51:57.987Z,19.90
2019-03-26T02:54:30.594Z,19.90
2019-03-26T02:57:03.156Z,19.80
2019-03-26T02:59:36.222Z,19.90
2019-03-26T03:02:08.779Z,19.80
2019-03-26T03:04:41.403Z,19.70
2019-03-26T03:07:14.035Z,19.60
2019-03-26T03:09:46.658Z,19.70
2019-03-26T03:12:19.323Z,19.90
2019-03-26T03:14:52.357Z,19.80
2019-03-26T03:17:24.924Z,19.80
2019-03-26T03:19:57.787Z,20.00
2019-03-26T03:22:30.622Z,19.90
2019-03-26T03:25:03.435Z,19.90
2019-03-26T03:27:36.031Z,19.90
2019-03-26T03:30:13.106Z,19.90
2019-03-26T03:32:45.670Z,20.50
2019-03-26T03:35:18.679Z,20.00
2019-03-26T03:37:51.235Z,19.70
2019-03-26T03:40:24.033Z,19.90
2019-03-26T03:42:56.621Z,19.80
2019-03-26T03:45:33.885Z,19.80
2019-03-26T03:48:06.818Z,19.90
2019-03-26T03:50:40.956Z,19.80
2019-03-26T03:53:18.535Z,19.90
2019-03-26T03:55:53.671Z,19.90
2019-03-26T03:58:29.442Z,19.90
2019-03-26T04:01:02.473Z,20.00
2019-03-26T04:03:35.065Z,20.20
2019-03-26T04:06:09.938Z,20.20
2019-03-26T04:08:42.022Z,20.20
2019-03-26T04:11:15.733Z,20.30
2019-03-26T04:13:48.332Z,20.40
2019-03-26T04:16:21.300Z,20.60
2019-03-26T04:18:53.939Z,20.60
2019-03-26T04:21:26.565Z,20.70
2019-03-26T04:23:59.133Z,20.80
2019-03-26T04:26:31.762Z,20.80
2019-03-26T04:29:04.332Z,20.90
2019-03-26T04:31:37.209Z,21.00
2019-03-26T04:34:09.777Z,20.90
2019-03-26T04:36:42.659Z,20.90
2019-03-26T04:39:15.212Z,20.90
2019-03-26T04:41:47.814Z,20.80
2019-03-26T04:44:20.389Z,21.20
2019-03-26T04:46:53.267Z,21.10
2019-03-26T04:49:25.864Z,21.10
2019-03-26T04:51:58.481Z,21.20
2019-03-26T04:54:31.051Z,21.30
2019-03-26T04:57:03.739Z,21.10
2019-03-26T04:59:36.388Z,20.90
2019-03-26T05:02:09.462Z,20.80
2019-03-26T05:04:42.065Z,20.80
2019-03-26T05:07:14.707Z,20.90
2019-03-26T05:09:47.324Z,21.00
2019-03-26T05:12:19.992Z,21.20
2019-03-26T05:14:52.579Z,21.70
2019-03-26T05:17:25.415Z,21.80
2019-03-26T05:19:58.069Z,21.70
2019-03-26T05:22:30.715Z,21.70
2019-03-26T05:25:03.277Z,21.70
2019-03-26T05:27:45.384Z,21.60
2019-03-26T05:30:10.983Z,21.50
2019-03-26T05:32:44.193Z,21.40
2019-03-26T05:35:16.955Z,21.40
2019-03-26T05:37:49.846Z,21.80
2019-03-26T05:40:22.427Z,21.70
2019-03-26T05:42:55.162Z,21.80
2019-03-26T05:45:27.713Z,21.60
2019-03-26T05:48:00.601Z,21.40
2019-03-26T05:50:33.187Z,21.70
2019-03-26T05:53:05.771Z,21.90
2019-03-26T05:55:38.347Z,22.20
2019-03-26T05:58:10.937Z,22.30
2019-03-26T06:00:43.551Z,22.60
2019-03-26T06:03:16.353Z,22.30
2019-03-26T06:05:48.926Z,22.00
2019-03-26T06:08:21.643Z,21.70
2019-03-26T06:10:54.208Z,21.70
2019-03-26T06:13:26.893Z,21.70
2019-03-26T06:15:59.461Z,21.50
2019-03-26T06:18:32.279Z,22.00
2019-03-26T06:21:05.785Z,22.00
2019-03-26T06:23:38.618Z,21.70
2019-03-26T06:26:11.165Z,21.70
2019-03-26T06:28:44.064Z,21.90
2019-03-26T06:31:16.622Z,21.30
2019-03-26T06:33:49.850Z,21.40
2019-03-26T06:36:22.412Z,21.50
2019-03-26T06:38:55.229Z,21.60
2019-03-26T06:41:27.804Z,21.40
2019-03-26T06:44:00.421Z,21.40
2019-03-26T06:46:32.997Z,21.10
2019-03-26T06:49:06.242Z,21.50
2019-03-26T06:51:38.813Z,21.40
2019-03-26T06:54:11.760Z,21.70
2019-03-26T06:56:44.304Z,22.00
2019-03-26T06:59:16.964Z,21.50
2019-03-26T07:01:50.226Z,22.20
2019-03-26T07:04:24.318Z,22.10
2019-03-26T07:06:57.907Z,21.90
2019-03-26T07:09:31.067Z,21.80
2019-03-26T07:12:03.681Z,21.80
2019-03-26T07:14:36.437Z,21.70
2019-03-26T07:17:09.050Z,21.60
2019-03-26T07:19:42.515Z,21.70
2019-03-26T07:22:15.128Z,21.60
2019-03-26T07:24:48.036Z,21.70
2019-03-26T07:27:20.659Z,21.80
2019-03-26T07:29:53.302Z,22.30
2019-03-26T07:32:25.890Z,22.50
2019-03-26T07:34:58.805Z,22.30
2019-03-26T07:37:44.152Z,23.40
2019-03-26T07:40:07.695Z,23.70
2019-03-26T07:42:40.289Z,24.30
2019-03-26T07:45:13.920Z,23.80
2019-03-26T07:47:48.245Z,23.70
2019-03-26T07:50:21.119Z,23.60
2019-03-26T07:52:53.676Z,23.90
2019-03-26T07:55:26.478Z,23.70
2019-03-26T07:57:59.063Z,23.50
2019-03-26T08:00:37.168Z,23.70
2019-03-26T08:03:10.024Z,23.40
2019-03-26T08:05:42.769Z,23.80
2019-03-26T08:08:15.379Z,24.40
2019-03-26T08:10:48.305Z,24.90
2019-03-26T08:13:20.936Z,24.00
2019-03-26T08:15:53.970Z,24.40
2019-03-26T08:18:26.641Z,25.80
2019-03-26T08:20:59.548Z,26.90
2019-03-26T08:36:40.780Z,25.50
2019-03-26T08:39:13.647Z,26.20
2019-03-26T08:41:46.478Z,26.40
2019-03-26T08:44:19.122Z,26.30
2019-03-26T08:46:51.934Z,25.60
2019-03-26T08:49:30.467Z,25.90
2019-03-26T08:51:59.166Z,26.00
2019-03-26T08:54:31.800Z,25.70
2019-03-26T08:57:04.719Z,24.60
2019-03-26T08:59:37.582Z,24.60
2019-03-26T09:02:11.631Z,25.00
2019-03-26T09:04:44.311Z,24.70
2019-03-26T09:07:17.181Z,23.80
2019-03-26T09:09:49.984Z,24.10
2019-03-26T09:12:22.945Z,23.90
2019-03-26T09:14:56.121Z,24.50
2019-03-26T09:17:29.031Z,25.30
2019-03-26T09:20:01.688Z,26.00
2019-03-26T09:22:34.900Z,25.80
2019-03-26T09:27:48.761Z,25.60
2019-03-26T09:30:21.516Z,24.50
2019-03-26T09:32:54.346Z,24.70
2019-03-26T09:35:26.957Z,25.10
2019-03-26T09:37:59.601Z,25.60
2019-03-26T09:40:32.196Z,25.40
2019-03-26T09:43:05.039Z,25.00
2019-03-26T09:45:37.928Z,25.80
2019-03-26T09:48:10.713Z,25.10
2019-03-26T09:50:44.547Z,24.70
2019-03-26T09:53:17.744Z,24.30
2019-03-26T09:55:50.320Z,24.70
2019-03-26T09:58:23.031Z,24.70
2019-03-26T10:00:55.673Z,24.70
2019-03-26T10:03:28.535Z,24.80
2019-03-26T10:06:01.109Z,24.50
2019-03-26T10:08:34.023Z,24.00
2019-03-26T10:11:06.630Z,24.20
2019-03-26T10:13:39.682Z,24.30
2019-03-26T10:16:12.485Z,24.50
2019-03-26T10:18:45.142Z,24.00
2019-03-26T10:21:17.805Z,23.70
2019-03-26T10:23:50.718Z,23.90
2019-03-26T10:26:23.331Z,23.80
2019-03-26T10:28:56.173Z,24.00
2019-03-26T10:31:29.128Z,24.00
2019-03-26T10:34:01.751Z,24.70
2019-03-26T10:36:34.782Z,24.50
2019-03-26T10:39:09.595Z,25.00
2019-03-26T10:41:42.164Z,24.60
2019-03-26T10:44:16.084Z,24.50
2019-03-26T10:46:49.196Z,24.50
2019-03-26T10:49:21.911Z,24.90
2019-03-26T10:51:54.554Z,25.70
2019-03-26T10:54:27.382Z,26.20
2019-03-26T10:56:59.985Z,25.80
2019-03-26T10:59:32.680Z,25.80
2019-03-26T11:02:05.668Z,26.20
2019-03-26T11:04:38.614Z,26.60
2019-03-26T11:07:11.382Z,26.20
2019-03-26T11:09:45.099Z,25.90
2019-03-26T11:12:17.672Z,25.40
2019-03-26T11:14:50.369Z,24.90
2019-03-26T11:17:24.231Z,24.20
2019-03-26T11:19:56.923Z,23.80
2019-03-26T11:22:29.505Z,23.90
2019-03-26T11:25:02.247Z,23.80
2019-03-26T11:27:34.875Z,23.90
2019-03-26T11:30:09.095Z,24.00
2019-03-26T11:32:42.030Z,23.90
2019-03-26T11:35:14.899Z,24.50
2019-03-26T11:37:47.569Z,24.70
2019-03-26T11:40:20.592Z,24.40
2019-03-26T11:42:53.255Z,24.40
2019-03-26T11:45:26.005Z,24.50
2019-03-26T11:47:59.022Z,24.10
2019-03-26T11:50:31.671Z,23.60
2019-03-26T11:53:04.482Z,23.80
2019-03-26T11:55:37.169Z,24.30
2019-03-26T11:58:09.769Z,24.20
2019-03-26T12:00:42.705Z,24.30
2019-03-26T12:03:15.639Z,24.00
2019-03-26T12:05:48.253Z,23.70
2019-03-26T12:08:20.893Z,23.80
2019-03-26T12:10:53.638Z,24.40
2019-03-26T12:13:26.248Z,24.30
2019-03-26T12:15:58.951Z,23.80
2019-03-26T12:18:31.538Z,24.00
2019-03-26T12:21:04.453Z,24.40
2019-03-26T12:23:37.057Z,24.30
2019-03-26T12:26:11.141Z,23.80
2019-03-26T12:28:43.724Z,23.10
2019-03-26T12:31:16.343Z,22.90
2019-03-26T12:33:49.078Z,23.00
2019-03-26T12:36:21.891Z,23.50
2019-03-26T12:38:54.481Z,24.10
2019-03-26T12:41:27.137Z,24.00
2019-03-26T12:43:59.727Z,22.60
2019-03-26T12:46:32.724Z,22.30
2019-03-26T12:49:05.555Z,22.30
2019-03-26T12:51:39.455Z,22.20
2019-03-26T12:54:12.203Z,21.90
2019-03-26T12:56:44.945Z,21.50
2019-03-26T12:59:17.594Z,21.10
2019-03-26T13:01:50.510Z,21.00
2019-03-26T13:04:23.479Z,20.70
2019-03-26T13:06:56.278Z,20.60
2019-03-26T13:09:28.863Z,20.40
2019-03-26T13:12:01.747Z,20.50
2019-03-26T13:14:34.763Z,19.60
2019-03-26T13:17:07.522Z,19.70
2019-03-26T13:19:40.501Z,19.20
2019-03-26T13:22:13.389Z,19.20
2019-03-26T13:24:45.993Z,18.70
2019-03-26T13:27:18.744Z,19.00
2019-03-26T13:29:51.421Z,19.10
2019-03-26T13:32:24.341Z,18.70
2019-03-26T13:34:57.066Z,18.30
2019-03-26T13:37:29.983Z,19.10
2019-03-26T13:40:02.573Z,20.00
2019-03-26T13:42:35.455Z,20.10
2019-03-26T13:45:09.274Z,20.00
2019-03-26T13:47:42.144Z,20.70
2019-03-26T13:50:15.795Z,21.10
2019-03-26T13:52:48.484Z,21.40
2019-03-26T13:55:21.225Z,22.20
2019-03-26T13:57:55.032Z,23.80
2019-03-26T14:00:37.900Z,24.20
2019-03-26T14:03:10.919Z,25.10
2019-03-26T14:05:43.495Z,24.80
2019-03-26T14:08:16.381Z,25.10
2019-03-26T14:10:49.015Z,24.70
2019-03-26T14:13:21.659Z,25.40
2019-03-26T14:15:54.265Z,24.70
2019-03-26T14:18:27.102Z,24.50
2019-03-26T14:21:00.135Z,23.50
2019-03-26T14:23:32.888Z,23.60
2019-03-26T14:26:07.172Z,23.10
2019-03-26T14:28:39.941Z,23.00
2019-03-26T14:31:12.603Z,22.40
2019-03-26T14:33:45.483Z,22.90
2019-03-26T14:36:18.283Z,23.00
2019-03-26T14:38:50.961Z,22.80
2019-03-26T14:41:23.617Z,23.50
2019-03-26T14:43:56.382Z,23.50
2019-03-26T14:46:28.995Z,24.70
2019-03-26T14:49:01.661Z,24.90
2019-03-26T14:51:34.671Z,25.20
2019-03-26T14:54:07.322Z,25.80
2019-03-26T14:56:39.974Z,26.00
2019-03-26T14:59:12.774Z,25.60
2019-03-26T15:01:45.448Z,25.60
2019-03-26T15:04:18.440Z,25.90
2019-03-26T15:06:51.157Z,25.30
2019-03-26T15:09:23.878Z,25.50
2019-03-26T15:11:56.615Z,25.30
2019-03-26T15:14:29.211Z,24.30
2019-03-26T15:17:01.878Z,24.90
2019-03-26T15:19:34.449Z,25.10
2019-03-26T15:22:07.578Z,24.70
2019-03-26T15:24:40.592Z,25.40
2019-03-26T15:27:13.191Z,24.60
2019-03-26T15:29:47.283Z,24.60
2019-03-26T15:32:19.885Z,24.30
2019-03-26T15:34:52.736Z,23.80
2019-03-26T15:37:25.804Z,23.70
2019-03-26T15:39:58.841Z,23.10
2019-03-26T15:42:31.527Z,22.70
2019-03-26T15:45:04.510Z,23.30
2019-03-26T15:47:37.144Z,22.90
2019-03-26T15:50:10.891Z,22.70
2019-03-26T15:52:43.853Z,22.30
2019-03-26T15:55:16.767Z,21.90
2019-03-26T15:57:49.882Z,21.60
2019-03-26T16:00:27.357Z,21.50
2019-03-26T16:02:59.952Z,21.60
2019-03-26T16:05:32.806Z,21.40
2019-03-26T16:08:05.673Z,20.90
2019-03-26T16:10:38.668Z,21.00
2019-03-26T16:13:11.234Z,20.90
2019-03-26T16:15:45.205Z,20.90
2019-03-26T16:18:18.102Z,20.80
2019-03-26T16:20:50.787Z,20.90
2019-03-26T16:23:23.667Z,21.30
2019-03-26T16:25:56.544Z,20.70
2019-03-26T16:28:29.190Z,20.70
2019-03-26T16:31:01.963Z,21.00
2019-03-26T16:33:35.773Z,21.00
2019-03-26T16:36:08.573Z,21.40
2019-03-26T16:38:41.227Z,21.30
2019-03-26T16:41:14.107Z,21.40
2019-03-26T16:43:46.683Z,21.00
2019-03-26T16:46:19.393Z,21.00
2019-03-26T16:48:52.010Z,20.80
2019-03-26T16:51:24.758Z,20.80
2019-03-26T16:53:57.677Z,20.80
2019-03-26T16:56:30.514Z,21.20
2019-03-26T16:59:03.472Z,21.10
2019-03-26T17:01:36.469Z,21.40
2019-03-26T17:04:09.066Z,22.00
2019-03-26T17:06:42.073Z,22.20
2019-03-26T17:09:14.734Z,22.30
2019-03-26T17:11:47.609Z,22.20
2019-03-26T17:14:20.205Z,22.40
2019-03-26T17:16:53.193Z,22.90
2019-03-26T17:19:25.819Z,22.70
2019-03-26T17:21:58.743Z,22.80
2019-03-26T17:24:31.342Z,22.60
2019-03-26T17:27:04.370Z,22.30
2019-03-26T17:29:36.966Z,21.90
2019-03-26T17:32:09.779Z,22.00
2019-03-26T17:34:42.362Z,22.40
2019-03-26T17:37:15.263Z,22.50
2019-03-26T17:39:47.958Z,22.20
2019-03-26T17:42:20.821Z,21.80
2019-03-26T17:44:53.406Z,21.70
2019-03-26T17:47:26.110Z,21.80
2019-03-26T17:49:59.875Z,22.00
2019-03-26T17:52:32.851Z,21.90
2019-03-26T17:55:05.936Z,21.70
2019-03-26T17:57:38.611Z,21.60
2019-03-26T18:00:14.985Z,21.40
2019-03-26T18:02:47.996Z,21.20
2019-03-26T18:05:29.208Z,21.30
2019-03-26T18:08:01.859Z,21.10
2019-03-26T18:10:34.773Z,21.10
2019-03-26T18:13:07.451Z,21.00
2019-03-26T18:15:40.069Z,21.20
2019-03-26T18:18:12.971Z,21.10
2019-03-26T18:20:45.699Z,21.10
2019-03-26T18:23:18.470Z,20.80
2019-03-26T18:25:51.386Z,20.90
2019-03-26T18:28:24.320Z,20.90
2019-03-26T18:30:57.080Z,20.70
2019-03-26T18:33:29.987Z,20.70
2019-03-26T18:36:02.618Z,20.90
2019-03-26T18:38:35.274Z,20.60
2019-03-26T18:41:08.240Z,20.60
2019-03-26T18:43:41.099Z,20.40
2019-03-26T18:46:13.798Z,20.40
2019-03-26T18:48:46.908Z,20.30
2019-03-26T18:51:19.737Z,20.50
2019-03-26T18:53:52.521Z,20.40
2019-03-26T18:56:25.115Z,20.30
2019-03-26T18:58:57.997Z,20.00
2019-03-26T19:01:30.766Z,20.00
2019-03-26T19:04:03.729Z,20.00
2019-03-26T19:06:37.649Z,20.20
2019-03-26T19:09:10.906Z,19.70
2019-03-26T19:11:43.663Z,19.50
2019-03-26T19:14:16.383Z,19.70
2019-03-26T19:16:49.078Z,19.10
2019-03-26T19:19:22.146Z,19.30
2019-03-26T19:21:54.852Z,19.10
2019-03-26T19:24:27.679Z,19.00
2019-03-26T19:27:04.082Z,19.00
2019-03-26T19:29:35.437Z,18.90
2019-03-26T19:32:08.247Z,19.10
2019-03-26T19:34:41.079Z,19.00
2019-03-26T19:37:13.677Z,18.60
2019-03-26T19:39:46.765Z,18.60
2019-03-26T19:42:19.722Z,18.70
2019-03-26T19:44:52.521Z,18.60
2019-03-26T19:47:25.649Z,18.30
2019-03-26T19:49:58.489Z,18.20
2019-03-26T19:52:31.245Z,18.10
2019-03-26T19:55:04.155Z,17.60
2019-03-26T19:57:37.166Z,17.70
2019-03-26T20:00:13.349Z,17.90
2019-03-26T20:02:46.183Z,17.20
2019-03-26T20:05:21.446Z,17.20
2019-03-26T20:07:54.385Z,17.60
2019-03-26T20:10:27.127Z,17.60
2019-03-26T20:13:00.196Z,17.70
2019-03-26T20:15:33.058Z,17.60
2019-03-26T20:18:05.737Z,17.30
2019-03-26T20:20:38.745Z,17.50
2019-03-26T20:23:11.382Z,17.50
2019-03-26T20:25:44.211Z,17.70
2019-03-26T20:28:17.448Z,18.10
2019-03-26T20:30:49.982Z,17.70
2019-03-26T20:33:22.676Z,17.90
2019-03-26T20:35:55.918Z,17.50
2019-03-26T20:38:28.864Z,17.40
2019-03-26T20:41:01.799Z,17.20
2019-03-26T20:43:37.544Z,17.70
2019-03-26T20:46:09.431Z,17.50
2019-03-26T20:48:42.165Z,17.50
2019-03-26T20:51:15.205Z,17.70
2019-03-26T20:53:47.959Z,17.70
2019-03-26T20:56:20.724Z,18.00
2019-03-26T20:58:53.810Z,18.00
2019-03-26T21:01:27.072Z,18.00
2019-03-26T21:03:59.856Z,18.00
2019-03-26T21:06:34.140Z,18.00
2019-03-26T21:09:09.120Z,17.90
2019-03-26T21:11:42.802Z,18.10
2019-03-26T21:14:15.615Z,18.10
2019-03-26T21:16:48.560Z,18.10
2019-03-26T21:19:21.229Z,18.40
2019-03-26T21:21:53.901Z,18.20
2019-03-26T21:24:26.619Z,18.40
2019-03-26T21:26:59.409Z,18.40
2019-03-26T21:29:32.426Z,18.70
2019-03-26T21:32:05.369Z,18.50
2019-03-26T21:34:38.084Z,18.30
2019-03-26T21:37:11.048Z,18.40
2019-03-26T21:39:43.692Z,18.60
2019-03-26T21:42:16.355Z,19.00
2019-03-26T21:44:49.129Z,18.80
2019-03-26T21:47:22.069Z,18.40
2019-03-26T21:49:54.713Z,18.50
2019-03-26T21:52:27.612Z,18.50
2019-03-26T21:55:00.360Z,18.70
2019-03-26T21:57:33.046Z,18.60
2019-03-26T22:00:07.846Z,18.70
2019-03-26T22:02:42.347Z,18.70
2019-03-26T22:05:15.035Z,18.30
2019-03-26T22:07:47.981Z,18.30
2019-03-26T22:10:20.776Z,18.70
2019-03-26T22:12:53.517Z,18.60
2019-03-26T22:15:26.447Z,18.50
2019-03-26T22:18:00.564Z,18.80
2019-03-26T22:20:33.308Z,18.80
2019-03-26T22:23:06.433Z,18.90
2019-03-26T22:25:39.447Z,19.10
2019-03-26T22:28:12.227Z,19.10
2019-03-26T22:30:45.318Z,19.00
2019-03-26T22:33:18.194Z,19.20
2019-03-26T22:35:50.810Z,19.20
2019-03-26T22:38:23.756Z,19.00
2019-03-26T22:40:56.317Z,18.80
2019-03-26T22:43:29.116Z,18.90
2019-03-26T22:46:01.993Z,18.70
2019-03-26T22:48:34.782Z,18.60
2019-03-26T22:51:07.404Z,18.50
2019-03-26T22:53:41.482Z,18.80
2019-03-26T22:56:14.073Z,18.90
2019-03-26T22:58:47.043Z,18.70
2019-03-26T23:01:20.315Z,18.60
2019-03-26T23:03:53.235Z,18.50
2019-03-26T23:06:26.368Z,18.60
2019-03-26T23:08:59.215Z,18.60
2019-03-26T23:11:33.174Z,19.10
2019-03-26T23:14:07.443Z,18.50
2019-03-26T23:16:40.675Z,18.50
2019-03-26T23:19:13.383Z,18.50
2019-03-26T23:21:45.989Z,18.40
2019-03-26T23:24:19.069Z,18.30
2019-03-26T23:26:52.848Z,18.50
2019-03-26T23:29:25.772Z,18.50
2019-03-26T23:31:58.518Z,18.40
2019-03-26T23:34:31.533Z,18.40
2019-03-26T23:37:04.137Z,18.50
2019-03-26T23:39:36.891Z,18.50
2019-03-26T23:42:09.572Z,18.40
2019-03-26T23:44:42.223Z,18.50
2019-03-26T23:47:15.001Z,18.40
2019-03-26T23:49:47.703Z,18.40
2019-03-26T23:52:20.361Z,18.30
2019-03-26T23:54:53.164Z,18.30
2019-03-26T23:57:25.726Z,18.20
2019-03-26T23:59:58.855Z,18.20
